sensor_id;sensor_type;location;lat;lon;timestamp;temperature;humidity
72604;DHT22;60645;56.968;24.196;2023-07-29T00:00:35;15.10;98.10
72604;DHT22;60645;56.968;24.196;2023-07-29T00:03:02;15.10;98.00
72604;DHT22;60645;56.968;24.196;2023-07-29T00:05:29;15.10;98.30
72604;DHT22;60645;56.968;24.196;2023-07-29T00:07:55;15.00;98.20
72604;DHT22;60645;56.968;24.196;2023-07-29T00:10:22;15.10;97.80
72604;DHT22;60645;56.968;24.196;2023-07-29T00:12:49;15.10;97.80
72604;DHT22;60645;56.968;24.196;2023-07-29T00:15:16;15.10;98.10
72604;DHT22;60645;56.968;24.196;2023-07-29T00:17:43;15.10;98.10
72604;DHT22;60645;56.968;24.196;2023-07-29T00:20:09;15.10;98.30
72604;DHT22;60645;56.968;24.196;2023-07-29T00:22:36;15.10;98.30
72604;DHT22;60645;56.968;24.196;2023-07-29T00:25:03;15.00;98.40
72604;DHT22;60645;56.968;24.196;2023-07-29T00:27:30;15.00;98.10
72604;DHT22;60645;56.968;24.196;2023-07-29T00:29:57;15.10;97.70
72604;DHT22;60645;56.968;24.196;2023-07-29T00:32:24;15.10;97.90
72604;DHT22;60645;56.968;24.196;2023-07-29T00:34:50;15.00;98.20
72604;DHT22;60645;56.968;24.196;2023-07-29T00:37:18;15.00;98.30
72604;DHT22;60645;56.968;24.196;2023-07-29T00:39:45;14.90;98.50
72604;DHT22;60645;56.968;24.196;2023-07-29T00:42:12;15.00;98.80
72604;DHT22;60645;56.968;24.196;2023-07-29T00:44:38;15.00;98.60
72604;DHT22;60645;56.968;24.196;2023-07-29T00:47:05;14.90;99.00
72604;DHT22;60645;56.968;24.196;2023-07-29T00:49:33;15.00;98.70
72604;DHT22;60645;56.968;24.196;2023-07-29T00:52:00;15.00;98.50
72604;DHT22;60645;56.968;24.196;2023-07-29T00:54:27;15.00;98.60
72604;DHT22;60645;56.968;24.196;2023-07-29T00:56:54;15.00;98.60
72604;DHT22;60645;56.968;24.196;2023-07-29T00:59:20;15.00;98.80
72604;DHT22;60645;56.968;24.196;2023-07-29T01:01:48;14.90;98.80
72604;DHT22;60645;56.968;24.196;2023-07-29T01:04:14;15.00;98.90
72604;DHT22;60645;56.968;24.196;2023-07-29T01:06:46;15.00;98.70
72604;DHT22;60645;56.968;24.196;2023-07-29T01:12:03;14.90;98.70
72604;DHT22;60645;56.968;24.196;2023-07-29T01:14:41;14.80;98.90
72604;DHT22;60645;56.968;24.196;2023-07-29T01:17:13;14.70;99.20
72604;DHT22;60645;56.968;24.196;2023-07-29T01:19:48;14.70;99.40
72604;DHT22;60645;56.968;24.196;2023-07-29T01:22:21;14.70;99.50
72604;DHT22;60645;56.968;24.196;2023-07-29T01:24:48;14.60;99.30
72604;DHT22;60645;56.968;24.196;2023-07-29T01:27:15;14.60;99.80
72604;DHT22;60645;56.968;24.196;2023-07-29T01:29:41;14.50;99.90
72604;DHT22;60645;56.968;24.196;2023-07-29T01:32:13;14.60;99.80
72604;DHT22;60645;56.968;24.196;2023-07-29T01:34:45;14.50;99.80
72604;DHT22;60645;56.968;24.196;2023-07-29T01:37:14;14.50;99.80
72604;DHT22;60645;56.968;24.196;2023-07-29T01:39:41;14.40;99.90
72604;DHT22;60645;56.968;24.196;2023-07-29T01:42:09;14.50;99.90
72604;DHT22;60645;56.968;24.196;2023-07-29T01:44:36;14.50;99.90
72604;DHT22;60645;56.968;24.196;2023-07-29T01:47:03;14.50;99.90
72604;DHT22;60645;56.968;24.196;2023-07-29T01:49:30;14.40;99.90
72604;DHT22;60645;56.968;24.196;2023-07-29T01:51:57;14.40;99.90
72604;DHT22;60645;56.968;24.196;2023-07-29T01:54:24;14.40;99.90
72604;DHT22;60645;56.968;24.196;2023-07-29T01:59:19;14.30;99.90
72604;DHT22;60645;56.968;24.196;2023-07-29T02:01:45;14.30;99.90
72604;DHT22;60645;56.968;24.196;2023-07-29T02:04:13;14.30;99.90
72604;DHT22;60645;56.968;24.196;2023-07-29T02:06:40;14.20;99.90
72604;DHT22;60645;56.968;24.196;2023-07-29T02:09:06;14.20;99.90
72604;DHT22;60645;56.968;24.196;2023-07-29T02:11:33;14.20;99.90
72604;DHT22;60645;56.968;24.196;2023-07-29T02:14:00;14.30;99.90
72604;DHT22;60645;56.968;24.196;2023-07-29T02:16:27;14.20;99.90
72604;DHT22;60645;56.968;24.196;2023-07-29T02:18:53;14.20;99.90
72604;DHT22;60645;56.968;24.196;2023-07-29T02:21:22;14.20;99.90
72604;DHT22;60645;56.968;24.196;2023-07-29T02:23:49;14.10;99.90
72604;DHT22;60645;56.968;24.196;2023-07-29T02:26:16;14.10;99.90
72604;DHT22;60645;56.968;24.196;2023-07-29T02:28:44;14.20;99.90
72604;DHT22;60645;56.968;24.196;2023-07-29T02:31:15;14.20;99.90
72604;DHT22;60645;56.968;24.196;2023-07-29T02:33:43;14.10;99.90
72604;DHT22;60645;56.968;24.196;2023-07-29T02:36:11;14.10;99.90
72604;DHT22;60645;56.968;24.196;2023-07-29T02:38:38;14.10;99.90
72604;DHT22;60645;56.968;24.196;2023-07-29T02:41:05;14.10;99.90
72604;DHT22;60645;56.968;24.196;2023-07-29T02:43:32;14.10;99.90
72604;DHT22;60645;56.968;24.196;2023-07-29T02:45:59;14.10;99.90
72604;DHT22;60645;56.968;24.196;2023-07-29T02:48:26;14.10;99.90
72604;DHT22;60645;56.968;24.196;2023-07-29T02:50:53;14.10;99.90
72604;DHT22;60645;56.968;24.196;2023-07-29T02:53:20;14.10;99.90
72604;DHT22;60645;56.968;24.196;2023-07-29T02:55:46;14.10;99.90
72604;DHT22;60645;56.968;24.196;2023-07-29T02:58:13;14.20;99.90
72604;DHT22;60645;56.968;24.196;2023-07-29T03:00:40;14.10;99.90
72604;DHT22;60645;56.968;24.196;2023-07-29T03:03:08;14.20;99.90
72604;DHT22;60645;56.968;24.196;2023-07-29T03:05:35;14.20;99.90
72604;DHT22;60645;56.968;24.196;2023-07-29T03:08:02;14.40;99.90
72604;DHT22;60645;56.968;24.196;2023-07-29T03:10:29;14.50;99.90
72604;DHT22;60645;56.968;24.196;2023-07-29T03:12:56;14.80;99.50
72604;DHT22;60645;56.968;24.196;2023-07-29T03:15:23;14.90;99.00
72604;DHT22;60645;56.968;24.196;2023-07-29T03:17:52;15.10;97.70
72604;DHT22;60645;56.968;24.196;2023-07-29T03:20:19;15.30;97.00
72604;DHT22;60645;56.968;24.196;2023-07-29T03:22:46;15.30;96.50
72604;DHT22;60645;56.968;24.196;2023-07-29T03:25:13;15.40;95.80
72604;DHT22;60645;56.968;24.196;2023-07-29T03:27:40;15.50;95.60
72604;DHT22;60645;56.968;24.196;2023-07-29T03:30:07;15.60;95.60
72604;DHT22;60645;56.968;24.196;2023-07-29T03:32:34;15.90;94.20
72604;DHT22;60645;56.968;24.196;2023-07-29T03:35:01;16.30;92.40
72604;DHT22;60645;56.968;24.196;2023-07-29T03:37:27;17.00;89.60
72604;DHT22;60645;56.968;24.196;2023-07-29T03:39:54;17.70;86.50
72604;DHT22;60645;56.968;24.196;2023-07-29T03:42:21;18.30;85.10
72604;DHT22;60645;56.968;24.196;2023-07-29T03:44:48;18.70;83.60
72604;DHT22;60645;56.968;24.196;2023-07-29T03:47:14;19.00;82.20
72604;DHT22;60645;56.968;24.196;2023-07-29T03:49:41;19.50;79.90
72604;DHT22;60645;56.968;24.196;2023-07-29T03:52:08;19.40;81.20
72604;DHT22;60645;56.968;24.196;2023-07-29T03:54:35;19.70;80.00
72604;DHT22;60645;56.968;24.196;2023-07-29T03:57:01;19.80;79.90
72604;DHT22;60645;56.968;24.196;2023-07-29T03:59:28;20.00;78.90
72604;DHT22;60645;56.968;24.196;2023-07-29T04:01:56;20.40;78.10
72604;DHT22;60645;56.968;24.196;2023-07-29T04:04:23;20.90;76.30
72604;DHT22;60645;56.968;24.196;2023-07-29T04:06:50;21.50;74.80
72604;DHT22;60645;56.968;24.196;2023-07-29T04:09:17;21.20;75.10
72604;DHT22;60645;56.968;24.196;2023-07-29T04:11:44;21.70;73.90
72604;DHT22;60645;56.968;24.196;2023-07-29T04:14:10;21.30;74.50
72604;DHT22;60645;56.968;24.196;2023-07-29T04:16:37;20.80;76.70
72604;DHT22;60645;56.968;24.196;2023-07-29T04:19:04;20.80;76.80
72604;DHT22;60645;56.968;24.196;2023-07-29T04:21:31;20.10;78.00
72604;DHT22;60645;56.968;24.196;2023-07-29T04:23:58;19.10;80.50
72604;DHT22;60645;56.968;24.196;2023-07-29T04:26:25;18.30;83.50
72604;DHT22;60645;56.968;24.196;2023-07-29T04:28:51;18.20;84.80
72604;DHT22;60645;56.968;24.196;2023-07-29T04:31:18;18.50;83.70
72604;DHT22;60645;56.968;24.196;2023-07-29T04:33:45;19.20;81.70
72604;DHT22;60645;56.968;24.196;2023-07-29T04:36:12;19.60;81.40
72604;DHT22;60645;56.968;24.196;2023-07-29T04:38:39;19.90;78.50
72604;DHT22;60645;56.968;24.196;2023-07-29T04:41:06;20.00;79.90
72604;DHT22;60645;56.968;24.196;2023-07-29T04:43:35;20.40;79.20
72604;DHT22;60645;56.968;24.196;2023-07-29T04:46:02;20.70;77.70
72604;DHT22;60645;56.968;24.196;2023-07-29T04:48:29;21.00;76.50
72604;DHT22;60645;56.968;24.196;2023-07-29T04:50:57;21.40;75.90
72604;DHT22;60645;56.968;24.196;2023-07-29T04:53:24;21.50;76.10
72604;DHT22;60645;56.968;24.196;2023-07-29T04:55:50;21.40;76.90
72604;DHT22;60645;56.968;24.196;2023-07-29T04:58:17;20.20;78.90
72604;DHT22;60645;56.968;24.196;2023-07-29T05:00:46;19.60;81.20
72604;DHT22;60645;56.968;24.196;2023-07-29T05:03:13;19.30;81.90
72604;DHT22;60645;56.968;24.196;2023-07-29T05:05:40;19.00;83.40
72604;DHT22;60645;56.968;24.196;2023-07-29T05:08:07;18.90;83.50
72604;DHT22;60645;56.968;24.196;2023-07-29T05:10:34;18.70;85.20
72604;DHT22;60645;56.968;24.196;2023-07-29T05:13:01;18.60;85.20
72604;DHT22;60645;56.968;24.196;2023-07-29T05:15:28;18.40;85.80
72604;DHT22;60645;56.968;24.196;2023-07-29T05:17:54;18.60;87.00
72604;DHT22;60645;56.968;24.196;2023-07-29T05:20:21;18.50;85.50
72604;DHT22;60645;56.968;24.196;2023-07-29T05:22:48;18.60;85.70
72604;DHT22;60645;56.968;24.196;2023-07-29T05:25:15;18.50;86.00
72604;DHT22;60645;56.968;24.196;2023-07-29T05:27:42;18.50;85.40
72604;DHT22;60645;56.968;24.196;2023-07-29T05:30:09;18.60;86.70
72604;DHT22;60645;56.968;24.196;2023-07-29T05:32:35;18.60;86.50
72604;DHT22;60645;56.968;24.196;2023-07-29T05:35:02;18.40;86.10
72604;DHT22;60645;56.968;24.196;2023-07-29T05:37:29;18.60;85.80
72604;DHT22;60645;56.968;24.196;2023-07-29T05:39:56;18.50;87.10
72604;DHT22;60645;56.968;24.196;2023-07-29T05:42:23;18.70;85.80
72604;DHT22;60645;56.968;24.196;2023-07-29T05:44:50;18.80;85.80
72604;DHT22;60645;56.968;24.196;2023-07-29T05:47:16;18.90;85.00
72604;DHT22;60645;56.968;24.196;2023-07-29T05:49:43;18.90;85.60
72604;DHT22;60645;56.968;24.196;2023-07-29T05:52:10;18.80;85.30
72604;DHT22;60645;56.968;24.196;2023-07-29T05:54:37;18.70;86.00
72604;DHT22;60645;56.968;24.196;2023-07-29T05:57:04;18.80;85.90
72604;DHT22;60645;56.968;24.196;2023-07-29T05:59:31;18.70;85.10
72604;DHT22;60645;56.968;24.196;2023-07-29T06:01:58;18.60;85.60
72604;DHT22;60645;56.968;24.196;2023-07-29T06:04:24;18.70;85.80
72604;DHT22;60645;56.968;24.196;2023-07-29T06:06:51;18.60;87.10
72604;DHT22;60645;56.968;24.196;2023-07-29T06:09:18;18.40;87.50
72604;DHT22;60645;56.968;24.196;2023-07-29T06:11:45;18.50;87.00
72604;DHT22;60645;56.968;24.196;2023-07-29T06:14:12;18.60;86.70
72604;DHT22;60645;56.968;24.196;2023-07-29T06:16:39;18.40;86.70
72604;DHT22;60645;56.968;24.196;2023-07-29T06:19:06;18.60;86.30
72604;DHT22;60645;56.968;24.196;2023-07-29T06:21:35;18.60;86.80
72604;DHT22;60645;56.968;24.196;2023-07-29T06:24:03;18.70;86.10
72604;DHT22;60645;56.968;24.196;2023-07-29T06:26:30;19.20;85.00
72604;DHT22;60645;56.968;24.196;2023-07-29T06:28:56;19.70;83.30
72604;DHT22;60645;56.968;24.196;2023-07-29T06:31:23;20.20;82.00
72604;DHT22;60645;56.968;24.196;2023-07-29T06:33:50;20.40;80.50
72604;DHT22;60645;56.968;24.196;2023-07-29T06:36:17;20.20;80.80
72604;DHT22;60645;56.968;24.196;2023-07-29T06:38:44;20.20;80.10
72604;DHT22;60645;56.968;24.196;2023-07-29T06:41:11;20.30;81.30
72604;DHT22;60645;56.968;24.196;2023-07-29T06:43:43;21.80;77.70
72604;DHT22;60645;56.968;24.196;2023-07-29T06:46:10;21.70;77.60
72604;DHT22;60645;56.968;24.196;2023-07-29T06:48:37;22.20;75.30
72604;DHT22;60645;56.968;24.196;2023-07-29T06:51:03;22.20;74.60
72604;DHT22;60645;56.968;24.196;2023-07-29T06:53:30;22.20;75.50
72604;DHT22;60645;56.968;24.196;2023-07-29T06:56:02;23.80;72.10
72604;DHT22;60645;56.968;24.196;2023-07-29T06:58:29;23.80;72.10
72604;DHT22;60645;56.968;24.196;2023-07-29T07:00:56;24.00;70.00
72604;DHT22;60645;56.968;24.196;2023-07-29T07:03:23;24.00;68.20
72604;DHT22;60645;56.968;24.196;2023-07-29T07:05:50;23.90;66.40
72604;DHT22;60645;56.968;24.196;2023-07-29T07:10:48;24.40;66.50
72604;DHT22;60645;56.968;24.196;2023-07-29T07:13:15;24.50;66.30
72604;DHT22;60645;56.968;24.196;2023-07-29T07:15:42;25.40;64.70
72604;DHT22;60645;56.968;24.196;2023-07-29T07:18:09;26.30;62.90
72604;DHT22;60645;56.968;24.196;2023-07-29T07:20:36;26.60;62.90
72604;DHT22;60645;56.968;24.196;2023-07-29T07:23:03;27.00;61.50
72604;DHT22;60645;56.968;24.196;2023-07-29T07:25:32;27.40;59.60
72604;DHT22;60645;56.968;24.196;2023-07-29T07:27:58;26.90;59.90
72604;DHT22;60645;56.968;24.196;2023-07-29T07:30:27;27.30;58.80
72604;DHT22;60645;56.968;24.196;2023-07-29T07:32:54;27.40;58.60
72604;DHT22;60645;56.968;24.196;2023-07-29T07:35:21;27.80;58.50
72604;DHT22;60645;56.968;24.196;2023-07-29T07:37:48;28.30;55.70
72604;DHT22;60645;56.968;24.196;2023-07-29T07:40:15;27.10;57.90
72604;DHT22;60645;56.968;24.196;2023-07-29T07:42:41;26.70;59.10
72604;DHT22;60645;56.968;24.196;2023-07-29T07:47:35;27.80;57.80
72604;DHT22;60645;56.968;24.196;2023-07-29T07:50:02;28.20;56.70
72604;DHT22;60645;56.968;24.196;2023-07-29T07:52:29;27.30;57.20
72604;DHT22;60645;56.968;24.196;2023-07-29T07:54:56;26.80;59.50
72604;DHT22;60645;56.968;24.196;2023-07-29T07:57:22;27.50;57.80
72604;DHT22;60645;56.968;24.196;2023-07-29T07:59:49;28.70;55.00
72604;DHT22;60645;56.968;24.196;2023-07-29T08:02:17;29.30;54.50
72604;DHT22;60645;56.968;24.196;2023-07-29T08:04:44;29.00;53.50
72604;DHT22;60645;56.968;24.196;2023-07-29T08:07:10;28.00;55.20
72604;DHT22;60645;56.968;24.196;2023-07-29T08:09:37;26.70;58.20
72604;DHT22;60645;56.968;24.196;2023-07-29T08:12:04;27.30;57.60
72604;DHT22;60645;56.968;24.196;2023-07-29T08:14:31;28.40;55.50
72604;DHT22;60645;56.968;24.196;2023-07-29T08:16:58;29.10;53.60
72604;DHT22;60645;56.968;24.196;2023-07-29T08:19:27;30.70;50.30
72604;DHT22;60645;56.968;24.196;2023-07-29T08:21:54;30.80;50.50
72604;DHT22;60645;56.968;24.196;2023-07-29T08:24:21;31.10;49.10
72604;DHT22;60645;56.968;24.196;2023-07-29T08:26:48;30.90;48.50
72604;DHT22;60645;56.968;24.196;2023-07-29T08:29:14;31.20;49.30
72604;DHT22;60645;56.968;24.196;2023-07-29T08:31:41;30.00;49.50
72604;DHT22;60645;56.968;24.196;2023-07-29T08:34:08;28.90;52.90
72604;DHT22;60645;56.968;24.196;2023-07-29T08:36:35;29.30;51.60
72604;DHT22;60645;56.968;24.196;2023-07-29T08:41:31;30.90;49.90
72604;DHT22;60645;56.968;24.196;2023-07-29T08:46:27;32.20;48.00
72604;DHT22;60645;56.968;24.196;2023-07-29T08:48:55;31.60;48.20
72604;DHT22;60645;56.968;24.196;2023-07-29T08:51:21;29.50;50.90
72604;DHT22;60645;56.968;24.196;2023-07-29T08:53:49;27.80;53.70
72604;DHT22;60645;56.968;24.196;2023-07-29T08:56:17;26.40;56.30
72604;DHT22;60645;56.968;24.196;2023-07-29T08:58:45;25.30;59.20
72604;DHT22;60645;56.968;24.196;2023-07-29T09:01:12;24.80;60.70
72604;DHT22;60645;56.968;24.196;2023-07-29T09:03:39;24.60;60.30
72604;DHT22;60645;56.968;24.196;2023-07-29T09:06:05;24.30;60.50
72604;DHT22;60645;56.968;24.196;2023-07-29T09:08:34;23.90;62.60
72604;DHT22;60645;56.968;24.196;2023-07-29T09:11:01;23.40;62.70
72604;DHT22;60645;56.968;24.196;2023-07-29T09:13:27;22.80;65.30
72604;DHT22;60645;56.968;24.196;2023-07-29T09:15:55;22.40;66.90
72604;DHT22;60645;56.968;24.196;2023-07-29T09:18:23;22.10;69.50
72604;DHT22;60645;56.968;24.196;2023-07-29T09:20:52;21.90;69.30
72604;DHT22;60645;56.968;24.196;2023-07-29T09:23:20;21.90;70.10
72604;DHT22;60645;56.968;24.196;2023-07-29T09:25:47;22.00;71.30
72604;DHT22;60645;56.968;24.196;2023-07-29T09:28:15;24.50;63.30
72604;DHT22;60645;56.968;24.196;2023-07-29T09:30:45;28.60;54.10
72604;DHT22;60645;56.968;24.196;2023-07-29T09:33:14;30.80;48.10
72604;DHT22;60645;56.968;24.196;2023-07-29T09:35:41;30.90;48.00
72604;DHT22;60645;56.968;24.196;2023-07-29T09:38:08;31.20;46.80
72604;DHT22;60645;56.968;24.196;2023-07-29T09:40:39;31.80;45.70
72604;DHT22;60645;56.968;24.196;2023-07-29T09:45:33;30.90;46.40
72604;DHT22;60645;56.968;24.196;2023-07-29T09:48:01;31.90;45.60
72604;DHT22;60645;56.968;24.196;2023-07-29T09:50:28;31.40;45.20
72604;DHT22;60645;56.968;24.196;2023-07-29T09:52:55;29.80;47.60
72604;DHT22;60645;56.968;24.196;2023-07-29T09:55:25;30.20;47.00
72604;DHT22;60645;56.968;24.196;2023-07-29T09:58:01;31.90;44.10
72604;DHT22;60645;56.968;24.196;2023-07-29T10:02:58;29.80;46.50
72604;DHT22;60645;56.968;24.196;2023-07-29T10:05:25;28.70;48.30
72604;DHT22;60645;56.968;24.196;2023-07-29T10:07:53;26.90;51.20
72604;DHT22;60645;56.968;24.196;2023-07-29T10:10:22;25.70;54.10
72604;DHT22;60645;56.968;24.196;2023-07-29T10:12:50;25.80;54.20
72604;DHT22;60645;56.968;24.196;2023-07-29T10:15:17;26.10;53.20
72604;DHT22;60645;56.968;24.196;2023-07-29T10:17:46;28.60;48.80
72604;DHT22;60645;56.968;24.196;2023-07-29T10:20:15;31.10;43.70
72604;DHT22;60645;56.968;24.196;2023-07-29T10:22:46;30.20;44.60
72604;DHT22;60645;56.968;24.196;2023-07-29T10:25:17;28.70;46.70
72604;DHT22;60645;56.968;24.196;2023-07-29T10:27:49;28.50;47.40
72604;DHT22;60645;56.968;24.196;2023-07-29T10:30:16;29.70;44.70
72604;DHT22;60645;56.968;24.196;2023-07-29T10:32:43;28.90;46.00
72604;DHT22;60645;56.968;24.196;2023-07-29T10:35:14;30.10;45.10
72604;DHT22;60645;56.968;24.196;2023-07-29T10:40:09;29.20;46.10
72604;DHT22;60645;56.968;24.196;2023-07-29T10:42:37;28.00;48.50
72604;DHT22;60645;56.968;24.196;2023-07-29T10:45:19;28.10;48.90
72604;DHT22;60645;56.968;24.196;2023-07-29T10:47:47;27.40;50.00
72604;DHT22;60645;56.968;24.196;2023-07-29T10:50:20;27.60;49.90
72604;DHT22;60645;56.968;24.196;2023-07-29T10:52:51;30.60;44.60
72604;DHT22;60645;56.968;24.196;2023-07-29T10:55:32;30.10;43.70
72604;DHT22;60645;56.968;24.196;2023-07-29T11:00:36;29.50;44.20
72604;DHT22;60645;56.968;24.196;2023-07-29T11:03:04;30.00;42.70
72604;DHT22;60645;56.968;24.196;2023-07-29T11:10:45;27.70;46.60
72604;DHT22;60645;56.968;24.196;2023-07-29T11:13:25;28.10;45.80
72604;DHT22;60645;56.968;24.196;2023-07-29T11:18:20;33.30;39.70
72604;DHT22;60645;56.968;24.196;2023-07-29T11:20:48;36.20;37.40
72604;DHT22;60645;56.968;24.196;2023-07-29T11:23:15;36.30;37.30
72604;DHT22;60645;56.968;24.196;2023-07-29T11:25:42;36.10;37.00
72604;DHT22;60645;56.968;24.196;2023-07-29T11:28:09;36.20;36.80
72604;DHT22;60645;56.968;24.196;2023-07-29T11:33:03;32.60;39.90
72604;DHT22;60645;56.968;24.196;2023-07-29T11:35:32;30.60;41.40
72604;DHT22;60645;56.968;24.196;2023-07-29T11:37:59;31.50;41.20
72604;DHT22;60645;56.968;24.196;2023-07-29T11:40:26;33.40;39.00
72604;DHT22;60645;56.968;24.196;2023-07-29T11:42:53;34.70;38.40
72604;DHT22;60645;56.968;24.196;2023-07-29T11:45:21;32.70;39.10
72604;DHT22;60645;56.968;24.196;2023-07-29T11:47:53;32.70;39.00
72604;DHT22;60645;56.968;24.196;2023-07-29T11:50:20;33.00;38.40
72604;DHT22;60645;56.968;24.196;2023-07-29T11:52:46;34.70;37.00
72604;DHT22;60645;56.968;24.196;2023-07-29T11:55:14;33.10;38.20
72604;DHT22;60645;56.968;24.196;2023-07-29T12:00:09;35.10;37.10
72604;DHT22;60645;56.968;24.196;2023-07-29T12:02:38;35.40;36.70
72604;DHT22;60645;56.968;24.196;2023-07-29T12:05:05;37.00;35.20
72604;DHT22;60645;56.968;24.196;2023-07-29T12:07:32;37.80;34.80
72604;DHT22;60645;56.968;24.196;2023-07-29T12:10:02;37.50;34.60
72604;DHT22;60645;56.968;24.196;2023-07-29T12:12:30;37.80;34.20
72604;DHT22;60645;56.968;24.196;2023-07-29T12:14:57;37.80;34.60
72604;DHT22;60645;56.968;24.196;2023-07-29T12:17:24;38.30;34.50
72604;DHT22;60645;56.968;24.196;2023-07-29T12:19:53;38.30;34.50
72604;DHT22;60645;56.968;24.196;2023-07-29T12:22:20;37.90;34.40
72604;DHT22;60645;56.968;24.196;2023-07-29T12:24:47;37.10;34.50
72604;DHT22;60645;56.968;24.196;2023-07-29T12:27:17;34.20;37.00
72604;DHT22;60645;56.968;24.196;2023-07-29T12:29:44;34.70;36.10
72604;DHT22;60645;56.968;24.196;2023-07-29T12:34:40;35.50;35.50
72604;DHT22;60645;56.968;24.196;2023-07-29T12:37:07;37.00;34.10
72604;DHT22;60645;56.968;24.196;2023-07-29T12:39:35;37.40;33.70
72604;DHT22;60645;56.968;24.196;2023-07-29T12:42:02;35.70;34.80
72604;DHT22;60645;56.968;24.196;2023-07-29T12:44:30;33.20;36.20
72604;DHT22;60645;56.968;24.196;2023-07-29T12:46:57;34.10;36.20
72604;DHT22;60645;56.968;24.196;2023-07-29T12:51:55;34.50;35.20
72604;DHT22;60645;56.968;24.196;2023-07-29T12:54:22;31.90;37.10
72604;DHT22;60645;56.968;24.196;2023-07-29T12:56:49;32.00;37.80
72604;DHT22;60645;56.968;24.196;2023-07-29T12:59:16;33.60;36.60
72604;DHT22;60645;56.968;24.196;2023-07-29T13:01:43;34.40;35.30
72604;DHT22;60645;56.968;24.196;2023-07-29T13:04:10;32.80;36.70
72604;DHT22;60645;56.968;24.196;2023-07-29T13:09:04;28.90;40.30
72604;DHT22;60645;56.968;24.196;2023-07-29T13:11:32;27.50;42.00
72604;DHT22;60645;56.968;24.196;2023-07-29T13:13:59;26.60;43.60
72604;DHT22;60645;56.968;24.196;2023-07-29T13:16:27;26.40;43.20
72604;DHT22;60645;56.968;24.196;2023-07-29T13:18:54;26.40;44.20
72604;DHT22;60645;56.968;24.196;2023-07-29T13:21:22;25.90;45.70
72604;DHT22;60645;56.968;24.196;2023-07-29T13:23:49;25.50;46.50
72604;DHT22;60645;56.968;24.196;2023-07-29T13:26:15;25.50;46.00
72604;DHT22;60645;56.968;24.196;2023-07-29T13:28:42;25.10;46.20
72604;DHT22;60645;56.968;24.196;2023-07-29T13:31:09;25.00;46.40
72604;DHT22;60645;56.968;24.196;2023-07-29T13:33:36;24.50;46.90
72604;DHT22;60645;56.968;24.196;2023-07-29T13:36:03;24.20;48.40
72604;DHT22;60645;56.968;24.196;2023-07-29T13:38:30;24.20;47.90
72604;DHT22;60645;56.968;24.196;2023-07-29T13:40:57;24.60;47.30
72604;DHT22;60645;56.968;24.196;2023-07-29T13:43:24;24.90;47.00
72604;DHT22;60645;56.968;24.196;2023-07-29T13:45:50;25.20;46.80
72604;DHT22;60645;56.968;24.196;2023-07-29T13:48:18;25.00;46.10
72604;DHT22;60645;56.968;24.196;2023-07-29T13:50:44;24.80;46.50
72604;DHT22;60645;56.968;24.196;2023-07-29T13:53:11;24.60;48.40
72604;DHT22;60645;56.968;24.196;2023-07-29T13:55:38;24.60;47.80
72604;DHT22;60645;56.968;24.196;2023-07-29T13:58:07;24.20;48.90
72604;DHT22;60645;56.968;24.196;2023-07-29T14:00:34;24.20;48.90
72604;DHT22;60645;56.968;24.196;2023-07-29T14:03:01;24.20;47.60
72604;DHT22;60645;56.968;24.196;2023-07-29T14:05:27;24.40;48.10
72604;DHT22;60645;56.968;24.196;2023-07-29T14:07:54;24.50;47.50
72604;DHT22;60645;56.968;24.196;2023-07-29T14:10:21;24.50;47.50
72604;DHT22;60645;56.968;24.196;2023-07-29T14:12:48;24.30;47.40
72604;DHT22;60645;56.968;24.196;2023-07-29T14:15:15;24.30;47.70
72604;DHT22;60645;56.968;24.196;2023-07-29T14:17:42;24.30;48.20
72604;DHT22;60645;56.968;24.196;2023-07-29T14:20:09;24.20;48.00
72604;DHT22;60645;56.968;24.196;2023-07-29T14:22:36;24.30;47.50
72604;DHT22;60645;56.968;24.196;2023-07-29T14:25:03;24.40;47.40
72604;DHT22;60645;56.968;24.196;2023-07-29T14:27:30;24.40;47.60
72604;DHT22;60645;56.968;24.196;2023-07-29T14:29:57;24.40;48.50
72604;DHT22;60645;56.968;24.196;2023-07-29T14:32:23;24.20;48.60
72604;DHT22;60645;56.968;24.196;2023-07-29T14:34:51;24.10;48.60
72604;DHT22;60645;56.968;24.196;2023-07-29T14:37:17;24.10;48.90
72604;DHT22;60645;56.968;24.196;2023-07-29T14:39:44;24.00;49.70
72604;DHT22;60645;56.968;24.196;2023-07-29T14:42:11;23.90;48.20
72604;DHT22;60645;56.968;24.196;2023-07-29T14:44:38;23.80;48.30
72604;DHT22;60645;56.968;24.196;2023-07-29T14:47:05;23.80;48.50
72604;DHT22;60645;56.968;24.196;2023-07-29T14:49:32;23.60;49.30
72604;DHT22;60645;56.968;24.196;2023-07-29T14:51:58;23.50;49.20
72604;DHT22;60645;56.968;24.196;2023-07-29T14:54:25;23.60;49.00
72604;DHT22;60645;56.968;24.196;2023-07-29T14:56:52;23.40;49.40
72604;DHT22;60645;56.968;24.196;2023-07-29T14:59:19;23.40;49.30
72604;DHT22;60645;56.968;24.196;2023-07-29T15:01:45;23.50;49.00
72604;DHT22;60645;56.968;24.196;2023-07-29T15:04:12;23.40;49.50
72604;DHT22;60645;56.968;24.196;2023-07-29T15:06:39;23.30;50.40
72604;DHT22;60645;56.968;24.196;2023-07-29T15:09:06;23.40;49.90
72604;DHT22;60645;56.968;24.196;2023-07-29T15:11:33;23.50;48.50
72604;DHT22;60645;56.968;24.196;2023-07-29T15:14:00;23.50;49.50
72604;DHT22;60645;56.968;24.196;2023-07-29T15:16:27;23.60;49.90
72604;DHT22;60645;56.968;24.196;2023-07-29T15:18:54;23.60;50.20
72604;DHT22;60645;56.968;24.196;2023-07-29T15:21:21;23.50;49.60
72604;DHT22;60645;56.968;24.196;2023-07-29T15:23:47;23.50;50.00
72604;DHT22;60645;56.968;24.196;2023-07-29T15:26:14;23.40;50.00
72604;DHT22;60645;56.968;24.196;2023-07-29T15:28:41;23.20;51.30
72604;DHT22;60645;56.968;24.196;2023-07-29T15:31:08;23.20;51.20
72604;DHT22;60645;56.968;24.196;2023-07-29T15:33:34;23.20;50.50
72604;DHT22;60645;56.968;24.196;2023-07-29T15:36:01;23.20;49.90
72604;DHT22;60645;56.968;24.196;2023-07-29T15:38:28;23.20;50.90
72604;DHT22;60645;56.968;24.196;2023-07-29T15:40:55;23.20;50.80
72604;DHT22;60645;56.968;24.196;2023-07-29T15:43:22;23.10;50.10
72604;DHT22;60645;56.968;24.196;2023-07-29T15:45:49;23.10;50.30
72604;DHT22;60645;56.968;24.196;2023-07-29T15:48:16;23.00;49.90
72604;DHT22;60645;56.968;24.196;2023-07-29T15:50:43;23.00;50.40
72604;DHT22;60645;56.968;24.196;2023-07-29T15:53:10;23.00;50.00
72604;DHT22;60645;56.968;24.196;2023-07-29T15:55:36;23.00;49.70
72604;DHT22;60645;56.968;24.196;2023-07-29T15:58:03;22.80;51.40
72604;DHT22;60645;56.968;24.196;2023-07-29T16:00:30;22.90;51.00